createdAt,value
2023-02-02T00:00:15.509Z,2.78
2023-02-02T00:01:20.644Z,2.83
2023-02-02T00:02:23.593Z,2.87
2023-02-02T00:03:26.696Z,2.88
2023-02-02T00:04:33.379Z,2.88
2023-02-02T00:05:36.366Z,2.87
2023-02-02T00:06:39.634Z,2.79
2023-02-02T00:07:42.548Z,2.79
2023-02-02T00:08:45.713Z,2.78
2023-02-02T00:09:48.739Z,2.75
2023-02-02T00:10:51.715Z,2.77
2023-02-02T00:11:55.031Z,2.77
2023-02-02T00:12:58.311Z,2.80
2023-02-02T00:14:01.317Z,2.82
2023-02-02T00:15:04.828Z,2.86
2023-02-02T00:16:29.349Z,2.85
2023-02-02T00:17:32.343Z,2.88
2023-02-02T00:18:35.252Z,2.86
2023-02-02T00:19:38.275Z,2.89
2023-02-02T00:20:41.356Z,2.89
2023-02-02T00:21:44.784Z,2.94
2023-02-02T00:22:47.707Z,2.99
2023-02-02T00:23:50.750Z,2.96
2023-02-02T00:24:53.899Z,2.95
2023-02-02T00:25:57.735Z,2.94
2023-02-02T00:27:01.213Z,2.91
2023-02-02T00:28:04.595Z,2.87
2023-02-02T00:29:08.673Z,2.90
2023-02-02T00:30:12.392Z,2.90
2023-02-02T00:31:15.372Z,2.91
2023-02-02T00:32:18.458Z,2.89
2023-02-02T00:33:21.474Z,2.89
2023-02-02T00:34:24.921Z,2.88
2023-02-02T00:35:28.419Z,2.86
2023-02-02T00:36:31.585Z,2.88
2023-02-02T00:37:34.944Z,2.87
2023-02-02T00:38:38.417Z,2.85
2023-02-02T00:39:45.023Z,2.95
2023-02-02T00:40:47.935Z,2.97
2023-02-02T00:41:50.961Z,2.96
2023-02-02T00:42:53.967Z,2.97
2023-02-02T00:44:15.524Z,3.00
2023-02-02T00:45:18.812Z,3.02
2023-02-02T00:46:21.935Z,3.04
2023-02-02T00:47:25.588Z,3.04
2023-02-02T00:48:28.715Z,3.03
2023-02-02T00:49:32.057Z,3.03
2023-02-02T00:50:35.031Z,2.99
2023-02-02T00:51:38.372Z,3.04
2023-02-02T00:52:41.358Z,3.01
2023-02-02T00:53:44.402Z,3.10
2023-02-02T00:54:47.457Z,3.09
2023-02-02T00:55:50.422Z,3.13
2023-02-02T00:56:53.628Z,3.08
2023-02-02T00:57:56.910Z,3.13
2023-02-02T00:59:00.009Z,3.15
2023-02-02T01:00:03.801Z,3.09
2023-02-02T01:01:15.178Z,3.07
2023-02-02T01:02:18.222Z,3.09
2023-02-02T01:03:21.331Z,3.03
2023-02-02T01:04:24.898Z,3.07
2023-02-02T01:05:27.797Z,3.01
2023-02-02T01:06:31.681Z,2.98
2023-02-02T01:07:34.591Z,2.94
2023-02-02T01:08:41.065Z,2.96
2023-02-02T01:09:44.182Z,2.98
2023-02-02T01:10:47.210Z,3.04
2023-02-02T01:11:50.285Z,2.97
2023-02-02T01:12:53.260Z,2.93
2023-02-02T01:13:56.498Z,2.93
2023-02-02T01:14:59.419Z,2.96
2023-02-02T01:16:03.563Z,2.89
2023-02-02T01:17:06.811Z,2.96
2023-02-02T01:18:09.750Z,2.94
2023-02-02T01:19:16.304Z,2.87
2023-02-02T01:20:20.836Z,2.92
2023-02-02T01:21:24.031Z,2.86
2023-02-02T01:22:27.041Z,2.83
2023-02-02T01:23:30.927Z,2.82
2023-02-02T01:24:34.348Z,2.75
2023-02-02T01:25:38.769Z,2.73
2023-02-02T01:26:41.924Z,2.74
2023-02-02T01:27:44.972Z,2.78
2023-02-02T01:28:48.209Z,2.71
2023-02-02T01:29:51.216Z,2.70
2023-02-02T01:30:54.747Z,2.70
2023-02-02T01:31:58.013Z,2.64
2023-02-02T01:33:01.169Z,2.64
2023-02-02T01:34:04.516Z,2.59
2023-02-02T01:35:08.007Z,2.56
2023-02-02T01:36:17.603Z,2.54
2023-02-02T01:37:22.460Z,2.59
2023-02-02T01:38:25.501Z,2.56
2023-02-02T01:39:28.831Z,2.58
2023-02-02T01:40:31.916Z,2.61
2023-02-02T01:41:35.057Z,2.60
2023-02-02T01:42:38.103Z,2.59
2023-02-02T01:43:44.332Z,2.59
2023-02-02T01:44:53.649Z,2.61
2023-02-02T01:45:59.471Z,2.56
2023-02-02T01:47:02.684Z,2.46
2023-02-02T01:48:05.635Z,2.45
2023-02-02T01:49:11.212Z,2.42
2023-02-02T01:50:16.991Z,2.41
2023-02-02T01:51:23.244Z,2.38
2023-02-02T01:52:29.222Z,2.41
2023-02-02T01:53:33.979Z,2.37
2023-02-02T01:54:40.984Z,2.40
2023-02-02T01:55:44.175Z,2.40
2023-02-02T01:56:55.720Z,2.42
2023-02-02T01:58:06.419Z,2.41
2023-02-02T01:59:11.225Z,2.44
2023-02-02T02:00:16.629Z,2.40
2023-02-02T02:01:19.547Z,2.41
2023-02-02T02:02:22.937Z,2.44
2023-02-02T02:03:28.617Z,2.42
2023-02-02T02:04:32.816Z,2.37
2023-02-02T02:05:41.328Z,2.35
2023-02-02T02:06:45.648Z,2.43
2023-02-02T02:07:53.025Z,2.43
2023-02-02T02:09:04.835Z,2.42
2023-02-02T02:10:08.702Z,2.39
2023-02-02T02:11:11.814Z,2.38
2023-02-02T02:12:16.325Z,2.35
2023-02-02T02:13:21.527Z,2.35
2023-02-02T02:14:43.109Z,2.37
2023-02-02T02:16:19.613Z,2.38
2023-02-02T02:17:41.402Z,2.38
2023-02-02T02:18:56.071Z,2.32
2023-02-02T02:20:36.133Z,2.40
2023-02-02T02:22:14.603Z,2.39
2023-02-02T02:24:08.016Z,2.33
2023-02-02T02:26:07.569Z,2.32
2023-02-02T02:27:19.404Z,2.35
2023-02-02T02:28:49.433Z,2.35
2023-02-02T02:30:35.299Z,2.37
2023-02-02T02:31:59.736Z,2.30
2023-02-02T02:33:19.904Z,2.34
2023-02-02T02:34:35.041Z,2.31
2023-02-02T02:35:41.023Z,2.34
2023-02-02T02:37:07.938Z,2.35
2023-02-02T02:38:29.418Z,2.33
2023-02-02T02:39:50.801Z,2.30
2023-02-02T02:41:02.112Z,2.33
2023-02-02T02:42:20.657Z,2.37
2023-02-02T02:43:31.605Z,2.29
2023-02-02T02:44:35.672Z,2.22
2023-02-02T02:45:39.653Z,2.20
2023-02-02T02:46:43.755Z,2.18
2023-02-02T02:47:50.031Z,2.21
2023-02-02T02:48:53.710Z,2.21
2023-02-02T02:49:56.785Z,2.25
2023-02-02T02:51:30.217Z,2.22
2023-02-02T02:52:35.025Z,2.21
2023-02-02T02:53:38.385Z,2.11
2023-02-02T02:54:46.276Z,2.08
2023-02-02T02:56:03.060Z,2.12
2023-02-02T02:57:27.698Z,2.09
2023-02-02T02:58:33.337Z,2.12
2023-02-02T02:59:42.316Z,2.11
2023-02-02T03:01:02.338Z,2.12
2023-02-02T03:02:19.169Z,2.09
2023-02-02T03:03:58.189Z,2.06
2023-02-02T03:05:01.062Z,2.10
2023-02-02T03:06:45.301Z,2.07
2023-02-02T03:07:58.302Z,2.05
2023-02-02T03:09:05.019Z,2.02
2023-02-02T03:10:13.707Z,1.99
2023-02-02T03:11:21.066Z,2.02
2023-02-02T03:12:24.580Z,2.03
2023-02-02T03:13:28.420Z,2.00
2023-02-02T03:14:35.762Z,2.01
2023-02-02T03:15:45.953Z,1.99
2023-02-02T03:16:51.876Z,1.98
2023-02-02T03:17:55.353Z,2.04
2023-02-02T03:18:58.544Z,2.04
2023-02-02T03:20:01.525Z,2.08
2023-02-02T03:21:04.697Z,2.04
2023-02-02T03:22:07.826Z,2.09
2023-02-02T03:23:10.970Z,2.08
2023-02-02T03:24:14.072Z,2.07
2023-02-02T03:25:17.220Z,2.11
2023-02-02T03:26:20.472Z,2.11
2023-02-02T03:27:24.198Z,2.14
2023-02-02T03:28:28.521Z,2.14
2023-02-02T03:29:31.795Z,2.11
2023-02-02T03:30:35.009Z,2.10
2023-02-02T03:31:38.456Z,2.11
2023-02-02T03:32:42.013Z,2.11
2023-02-02T03:33:45.227Z,2.07
2023-02-02T03:34:48.133Z,2.08
2023-02-02T03:35:51.103Z,2.01
2023-02-02T03:36:54.057Z,1.99
2023-02-02T03:37:57.377Z,1.99
2023-02-02T03:39:00.879Z,1.97
2023-02-02T03:40:05.142Z,2.04
2023-02-02T03:41:08.155Z,1.99
2023-02-02T03:42:11.178Z,2.01
2023-02-02T03:43:14.066Z,2.03
2023-02-02T03:44:16.911Z,2.00
2023-02-02T03:45:19.996Z,2.00
2023-02-02T03:46:23.208Z,1.97
2023-02-02T03:47:30.111Z,1.97
2023-02-02T03:48:37.544Z,2.01
2023-02-02T03:49:40.579Z,2.06
2023-02-02T03:50:43.499Z,2.03
2023-02-02T03:51:46.625Z,2.04
2023-02-02T03:52:49.511Z,2.00
2023-02-02T03:53:52.464Z,2.01
2023-02-02T03:54:55.421Z,1.96
2023-02-02T03:55:58.362Z,2.03
2023-02-02T03:57:01.371Z,1.99
2023-02-02T03:58:04.522Z,2.00
2023-02-02T03:59:07.517Z,1.94
2023-02-02T04:00:12.544Z,1.92
2023-02-02T04:01:16.139Z,1.97
2023-02-02T04:02:19.281Z,1.98
2023-02-02T04:03:22.133Z,1.94
2023-02-02T04:04:25.376Z,1.85
2023-02-02T04:05:28.524Z,1.83
2023-02-02T04:06:31.667Z,1.82
2023-02-02T04:07:34.620Z,1.83
2023-02-02T04:08:39.715Z,1.78
2023-02-02T04:09:42.923Z,1.77
2023-02-02T04:10:46.055Z,1.72
2023-02-02T04:11:49.366Z,1.67
2023-02-02T04:12:52.414Z,1.70
2023-02-02T04:13:55.342Z,1.69
2023-02-02T04:14:58.397Z,1.65
2023-02-02T04:16:02.014Z,1.64
2023-02-02T04:17:05.126Z,1.67
2023-02-02T04:18:08.189Z,1.68
2023-02-02T04:19:13.415Z,1.67
2023-02-02T04:20:16.920Z,1.67
2023-02-02T04:21:19.857Z,1.63
2023-02-02T04:22:22.851Z,1.64
2023-02-02T04:23:26.067Z,1.55
2023-02-02T04:24:29.228Z,1.56
2023-02-02T04:25:32.137Z,1.55
2023-02-02T04:26:35.397Z,1.47
2023-02-02T04:27:38.496Z,1.47
2023-02-02T04:28:41.776Z,1.45
2023-02-02T04:29:44.822Z,1.38
2023-02-02T04:30:48.380Z,1.38
2023-02-02T04:31:51.521Z,1.36
2023-02-02T04:32:55.288Z,1.35
2023-02-02T04:33:59.306Z,1.32
2023-02-02T04:35:02.344Z,1.31
2023-02-02T04:36:05.977Z,1.32
2023-02-02T04:37:09.064Z,1.30
2023-02-02T04:38:12.429Z,1.29
2023-02-02T04:39:15.696Z,1.30
2023-02-02T04:40:19.060Z,1.31
2023-02-02T04:41:22.984Z,1.33
2023-02-02T04:42:25.900Z,1.37
2023-02-02T04:43:29.007Z,1.34
2023-02-02T04:44:36.048Z,1.32
2023-02-02T04:45:39.388Z,1.29
2023-02-02T04:46:45.711Z,1.22
2023-02-02T04:47:48.829Z,1.16
2023-02-02T04:48:51.859Z,1.16
2023-02-02T04:49:54.619Z,1.22
2023-02-02T04:51:07.300Z,1.17
2023-02-02T04:52:11.774Z,1.10
2023-02-02T04:53:14.769Z,1.14
2023-02-02T04:54:18.463Z,1.13
2023-02-02T04:55:21.712Z,1.14
2023-02-02T04:56:24.651Z,1.15
2023-02-02T04:57:27.746Z,1.11
2023-02-02T04:58:33.060Z,1.08
2023-02-02T04:59:36.081Z,1.07
2023-02-02T05:00:39.226Z,1.04
2023-02-02T05:01:42.188Z,1.00
2023-02-02T05:02:45.181Z,0.95
2023-02-02T05:03:49.320Z,0.99
2023-02-02T05:04:52.326Z,0.98
2023-02-02T05:06:03.010Z,0.97
2023-02-02T05:07:06.277Z,0.97
2023-02-02T05:08:13.080Z,0.96
2023-02-02T05:09:16.086Z,1.03
2023-02-02T05:10:19.191Z,0.97
2023-02-02T05:12:31.593Z,0.91
2023-02-02T05:13:35.030Z,0.97
2023-02-02T05:14:38.125Z,0.97
2023-02-02T05:15:40.943Z,1.00
2023-02-02T05:16:43.926Z,0.98
2023-02-02T05:17:48.230Z,0.94
2023-02-02T05:18:52.883Z,0.91
2023-02-02T05:19:55.904Z,0.98
2023-02-02T05:21:03.228Z,0.96
2023-02-02T05:22:06.346Z,0.87
2023-02-02T05:23:09.200Z,0.84
2023-02-02T05:24:13.058Z,0.82
2023-02-02T05:25:16.364Z,0.86
2023-02-02T05:26:25.324Z,0.90
2023-02-02T05:27:28.658Z,0.90
2023-02-02T05:28:31.888Z,0.86
2023-02-02T05:29:34.926Z,0.81
2023-02-02T05:30:40.671Z,0.79
2023-02-02T05:31:43.785Z,0.81
2023-02-02T05:32:46.756Z,0.78
2023-02-02T05:33:49.727Z,0.76
2023-02-02T05:34:56.051Z,0.72
2023-02-02T05:35:59.081Z,0.73
2023-02-02T05:37:02.185Z,0.76
2023-02-02T05:38:05.292Z,0.82
2023-02-02T05:39:09.642Z,0.78
2023-02-02T05:40:12.776Z,0.75
2023-02-02T05:41:15.771Z,0.76
2023-02-02T05:42:18.687Z,0.74
2023-02-02T05:43:24.683Z,0.74
2023-02-02T05:44:27.679Z,0.72
2023-02-02T05:45:30.549Z,0.82
2023-02-02T05:46:33.607Z,0.72
2023-02-02T05:47:36.541Z,0.76
2023-02-02T05:48:43.100Z,0.74
2023-02-02T05:49:46.000Z,0.74
2023-02-02T05:50:59.977Z,0.74
2023-02-02T05:52:06.079Z,0.74
2023-02-02T05:53:10.885Z,0.73
2023-02-02T05:54:17.600Z,0.70
2023-02-02T05:55:20.565Z,0.73
2023-02-02T05:56:23.526Z,0.77
2023-02-02T05:57:28.444Z,0.78
2023-02-02T05:58:31.498Z,0.73
2023-02-02T05:59:34.368Z,0.75
2023-02-02T06:00:37.264Z,0.72
2023-02-02T06:01:40.443Z,0.67
2023-02-02T06:02:43.993Z,0.65
2023-02-02T06:03:47.399Z,0.72
2023-02-02T06:04:50.389Z,0.69
2023-02-02T06:05:53.451Z,0.66
2023-02-02T06:06:56.801Z,0.67
2023-02-02T06:07:59.885Z,0.71
2023-02-02T06:09:03.153Z,0.73
2023-02-02T06:10:06.833Z,0.68
2023-02-02T06:11:11.959Z,0.67
2023-02-02T06:12:14.952Z,0.69
2023-02-02T06:13:17.885Z,0.68
2023-02-02T06:14:25.063Z,0.69
2023-02-02T06:15:29.279Z,0.71
2023-02-02T06:16:32.430Z,0.72
2023-02-02T06:17:36.142Z,0.76
2023-02-02T06:18:39.373Z,0.83
2023-02-02T06:19:42.581Z,0.84
2023-02-02T06:20:47.192Z,0.84
2023-02-02T06:21:50.207Z,0.79
2023-02-02T06:22:53.235Z,0.78
2023-02-02T06:23:56.238Z,0.78
2023-02-02T06:24:59.317Z,0.74
2023-02-02T06:26:03.845Z,0.78
2023-02-02T06:27:06.907Z,0.79
2023-02-02T06:28:10.006Z,0.76
2023-02-02T06:29:14.607Z,0.76
2023-02-02T06:30:18.113Z,0.72
2023-02-02T06:31:21.838Z,0.71
2023-02-02T06:32:24.961Z,0.72
2023-02-02T06:33:28.242Z,0.79
2023-02-02T06:34:31.350Z,0.81
2023-02-02T06:35:35.040Z,0.79
2023-02-02T06:36:37.950Z,0.75
2023-02-02T06:37:42.431Z,0.74
2023-02-02T06:38:49.531Z,0.74
2023-02-02T06:39:52.584Z,0.76
2023-02-02T06:40:56.254Z,0.76
2023-02-02T06:42:02.034Z,0.77
2023-02-02T06:43:09.658Z,0.75
2023-02-02T06:44:15.550Z,0.74
2023-02-02T06:45:18.611Z,0.82
2023-02-02T06:46:22.227Z,0.86
2023-02-02T06:47:26.812Z,0.79
2023-02-02T06:48:30.134Z,0.78
2023-02-02T06:49:33.134Z,0.74
2023-02-02T06:50:36.551Z,0.82
2023-02-02T06:51:39.768Z,0.92
2023-02-02T06:52:52.949Z,0.89
2023-02-02T06:53:58.354Z,0.81
2023-02-02T06:55:06.079Z,0.76
2023-02-02T06:56:13.237Z,0.72
2023-02-02T06:57:16.325Z,0.79
2023-02-02T06:58:19.285Z,0.78
2023-02-02T06:59:22.352Z,0.80
2023-02-02T07:00:26.000Z,0.82
2023-02-02T07:01:29.238Z,0.80
2023-02-02T07:02:36.095Z,0.74
2023-02-02T07:03:39.764Z,0.85
2023-02-02T07:04:42.758Z,0.83
2023-02-02T07:05:45.704Z,0.91
2023-02-02T07:06:48.930Z,0.83
2023-02-02T07:07:52.206Z,0.79
2023-02-02T07:09:02.118Z,0.81
2023-02-02T07:10:06.330Z,0.77
2023-02-02T07:11:16.641Z,0.71
2023-02-02T07:12:20.217Z,0.69
2023-02-02T07:13:23.631Z,0.77
2023-02-02T07:14:27.357Z,0.76
2023-02-02T07:15:30.257Z,0.75
2023-02-02T07:16:33.501Z,0.76
2023-02-02T07:17:40.344Z,0.85
2023-02-02T07:18:44.073Z,0.82
2023-02-02T07:19:47.368Z,0.79
2023-02-02T07:20:50.629Z,0.84
2023-02-02T07:21:54.212Z,0.83
2023-02-02T07:22:57.215Z,0.85
2023-02-02T07:24:00.682Z,0.90
2023-02-02T07:25:03.676Z,0.93
2023-02-02T07:26:09.213Z,0.93
2023-02-02T07:27:12.158Z,0.91
2023-02-02T07:28:15.057Z,0.92
2023-02-02T07:29:17.948Z,0.89
2023-02-02T07:30:21.663Z,0.94
2023-02-02T07:31:27.134Z,1.01
2023-02-02T07:32:30.243Z,1.09
2023-02-02T07:33:33.137Z,1.11
2023-02-02T07:34:39.823Z,1.13
2023-02-02T07:35:42.857Z,1.15
2023-02-02T07:36:45.834Z,1.21
2023-02-02T07:37:56.319Z,1.26
2023-02-02T07:38:59.931Z,1.30
2023-02-02T07:40:06.073Z,1.37
2023-02-02T07:41:09.201Z,1.36
2023-02-02T07:42:13.336Z,1.38
2023-02-02T07:43:16.272Z,1.50
2023-02-02T07:44:22.285Z,1.56
2023-02-02T07:45:36.415Z,1.62
2023-02-02T07:46:40.280Z,1.68
2023-02-02T07:47:43.288Z,1.70
2023-02-02T07:48:46.770Z,1.71
2023-02-02T07:49:49.730Z,1.66
2023-02-02T07:50:52.702Z,1.69
2023-02-02T07:51:55.757Z,1.72
2023-02-02T07:53:00.933Z,1.76
2023-02-02T07:54:04.361Z,1.84
2023-02-02T07:55:14.750Z,1.87
2023-02-02T07:56:21.552Z,1.94
2023-02-02T07:57:29.318Z,2.00
2023-02-02T07:58:32.544Z,2.07
2023-02-02T07:59:35.964Z,2.09
2023-02-02T08:00:39.082Z,2.15
2023-02-02T08:01:42.394Z,2.24
2023-02-02T08:02:48.764Z,2.27
2023-02-02T08:03:53.983Z,2.24
2023-02-02T08:04:56.972Z,2.29
2023-02-02T08:06:00.534Z,2.31
2023-02-02T08:07:03.568Z,2.36
2023-02-02T08:08:06.654Z,2.42
2023-02-02T08:09:10.533Z,2.40
2023-02-02T08:10:13.784Z,2.45
2023-02-02T08:11:19.845Z,2.49
2023-02-02T08:12:24.878Z,2.49
2023-02-02T08:13:28.580Z,2.59
2023-02-02T08:14:32.675Z,2.57
2023-02-02T08:15:39.123Z,2.54
2023-02-02T08:16:42.091Z,2.58
2023-02-02T08:17:47.092Z,2.68
2023-02-02T08:18:50.645Z,2.69
2023-02-02T08:19:53.829Z,2.74
2023-02-02T08:21:02.734Z,2.79
2023-02-02T08:22:05.833Z,2.80
2023-02-02T08:23:16.028Z,2.85
2023-02-02T08:24:18.994Z,2.83
2023-02-02T08:25:22.227Z,2.90
2023-02-02T08:26:28.496Z,2.89
2023-02-02T08:27:32.055Z,2.91
2023-02-02T08:28:36.914Z,2.94
2023-02-02T08:29:39.962Z,2.97
2023-02-02T08:30:43.186Z,3.01
2023-02-02T08:31:46.571Z,3.09
2023-02-02T08:32:49.600Z,3.07
2023-02-02T08:33:54.296Z,3.12
2023-02-02T08:34:57.206Z,3.11
2023-02-02T08:36:00.133Z,3.14
2023-02-02T08:37:04.268Z,3.15
2023-02-02T08:38:07.827Z,3.21
2023-02-02T08:39:13.361Z,3.23
2023-02-02T08:40:16.719Z,3.25
2023-02-02T08:41:23.120Z,3.28
2023-02-02T08:42:26.212Z,3.29
2023-02-02T08:43:30.018Z,3.34
2023-02-02T08:44:43.101Z,3.33
2023-02-02T08:46:12.728Z,3.42
2023-02-02T08:47:17.170Z,3.41
2023-02-02T08:48:24.256Z,3.43
2023-02-02T08:49:28.057Z,3.44
2023-02-02T08:50:30.927Z,3.49
2023-02-02T08:51:33.903Z,3.56
2023-02-02T08:52:36.867Z,3.60
2023-02-02T08:53:39.718Z,3.60
2023-02-02T08:54:42.693Z,3.69
2023-02-02T08:55:45.621Z,3.80
2023-02-02T08:56:48.664Z,3.88
2023-02-02T08:57:51.733Z,3.94
2023-02-02T08:58:58.680Z,3.96
2023-02-02T09:00:01.773Z,4.00
2023-02-02T09:01:13.077Z,4.07
2023-02-02T09:02:17.100Z,4.11
2023-02-02T09:03:21.027Z,4.22
2023-02-02T09:04:28.116Z,4.21
2023-02-02T09:05:31.001Z,4.24
2023-02-02T09:06:40.102Z,4.23
2023-02-02T09:07:43.329Z,4.29
2023-02-02T09:08:47.021Z,4.33
2023-02-02T09:09:52.155Z,4.35
2023-02-02T09:10:55.465Z,4.34
2023-02-02T09:12:03.096Z,4.35
2023-02-02T09:13:06.263Z,4.36
2023-02-02T09:14:11.188Z,4.37
2023-02-02T09:15:14.241Z,4.49
2023-02-02T09:16:19.008Z,4.47
2023-02-02T09:17:22.616Z,4.56
2023-02-02T09:18:27.372Z,4.59
2023-02-02T09:19:30.769Z,4.56
2023-02-02T09:20:34.068Z,4.59
2023-02-02T09:21:37.588Z,4.61
2023-02-02T09:22:40.560Z,4.68
2023-02-02T09:23:44.897Z,4.81
2023-02-02T09:24:47.910Z,4.80
2023-02-02T09:25:50.987Z,4.75
2023-02-02T09:26:54.088Z,4.72
2023-02-02T09:27:57.381Z,4.77
2023-02-02T09:29:04.214Z,4.77
2023-02-02T09:30:08.717Z,4.78
2023-02-02T09:31:12.029Z,4.75
2023-02-02T09:32:15.121Z,4.83
2023-02-02T09:33:18.149Z,4.87
2023-02-02T09:34:21.020Z,4.89
2023-02-02T09:35:24.469Z,4.95
2023-02-02T09:36:28.047Z,4.95
2023-02-02T09:37:34.744Z,4.95
2023-02-02T09:38:40.660Z,4.99
2023-02-02T09:39:43.773Z,5.17
2023-02-02T09:40:47.578Z,5.25
2023-02-02T09:42:23.679Z,5.21
2023-02-02T09:43:45.126Z,5.28
2023-02-02T09:44:48.387Z,5.33
2023-02-02T09:46:10.226Z,5.34
2023-02-02T09:47:20.989Z,5.37
2023-02-02T09:48:53.639Z,5.42
2023-02-02T09:50:28.985Z,5.51
2023-02-02T09:51:44.125Z,5.57
2023-02-02T09:53:12.047Z,5.71
2023-02-02T09:54:20.637Z,5.82
2023-02-02T09:55:40.710Z,5.93
2023-02-02T09:56:51.055Z,5.96
2023-02-02T09:58:04.583Z,5.98
2023-02-02T09:59:21.395Z,5.98
2023-02-02T10:00:32.405Z,5.98
2023-02-02T10:01:39.406Z,5.95
2023-02-02T10:02:46.415Z,5.93
2023-02-02T10:04:05.719Z,5.84
2023-02-02T10:05:19.383Z,5.79
2023-02-02T10:06:36.101Z,5.72
2023-02-02T10:07:47.739Z,5.67
2023-02-02T10:08:58.070Z,5.64
2023-02-02T10:10:11.126Z,5.62
2023-02-02T10:11:26.527Z,5.66
2023-02-02T10:12:47.651Z,5.55
2023-02-02T10:13:53.399Z,5.52
2023-02-02T10:15:37.762Z,5.52
2023-02-02T10:16:41.592Z,5.44
2023-02-02T10:17:50.320Z,5.35
2023-02-02T10:19:10.022Z,5.27
2023-02-02T10:20:45.217Z,5.23
2023-02-02T10:22:19.895Z,5.15
2023-02-02T10:23:36.027Z,5.14
2023-02-02T10:24:39.271Z,5.13
2023-02-02T10:26:11.644Z,5.15
2023-02-02T10:27:18.005Z,5.17
2023-02-02T10:28:32.371Z,5.18
2023-02-02T10:29:49.678Z,5.16
2023-02-02T10:31:02.899Z,5.17
2023-02-02T10:32:23.586Z,5.19
2023-02-02T10:33:40.034Z,5.17
2023-02-02T10:35:11.006Z,5.16
2023-02-02T10:36:30.523Z,5.21
2023-02-02T10:37:57.274Z,5.21
2023-02-02T10:39:40.424Z,5.19
2023-02-02T10:41:08.269Z,5.22
2023-02-02T10:42:20.009Z,5.26
2023-02-02T10:43:47.314Z,5.23
2023-02-02T10:45:19.288Z,5.14
2023-02-02T10:46:31.664Z,5.17
2023-02-02T10:47:35.175Z,5.17
2023-02-02T10:48:47.752Z,5.20
2023-02-02T10:50:02.060Z,5.20
2023-02-02T10:51:18.535Z,5.22
2023-02-02T10:52:29.949Z,5.17
2023-02-02T10:53:33.850Z,5.15
2023-02-02T10:55:04.217Z,5.21
2023-02-02T10:56:12.371Z,5.20
2023-02-02T10:57:20.522Z,5.27
2023-02-02T10:58:29.815Z,5.24
2023-02-02T10:59:36.152Z,5.21
2023-02-02T11:00:51.612Z,5.19
2023-02-02T11:01:54.906Z,5.16
2023-02-02T11:02:59.312Z,5.16
2023-02-02T11:04:21.246Z,5.14
2023-02-02T11:05:45.201Z,5.13
2023-02-02T11:06:51.169Z,5.07
2023-02-02T11:07:55.121Z,5.11
2023-02-02T11:09:00.872Z,5.13
2023-02-02T11:10:04.497Z,5.17
2023-02-02T11:11:13.473Z,5.10
2023-02-02T11:12:29.234Z,5.16
2023-02-02T11:13:37.828Z,5.09
2023-02-02T11:14:47.707Z,5.06
2023-02-02T11:15:50.948Z,4.97
2023-02-02T11:17:09.121Z,4.93
2023-02-02T11:18:31.153Z,4.96
2023-02-02T11:19:35.034Z,5.01
2023-02-02T11:20:39.343Z,5.01
2023-02-02T11:21:47.993Z,5.01
2023-02-02T11:23:01.389Z,5.01
2023-02-02T11:24:25.285Z,4.99
2023-02-02T11:25:34.442Z,4.98
2023-02-02T11:26:48.489Z,4.96
2023-02-02T11:27:52.163Z,4.98
2023-02-02T11:28:59.219Z,5.08
2023-02-02T11:30:23.432Z,5.14
2023-02-02T11:31:37.913Z,5.19
2023-02-02T11:32:42.177Z,5.16
2023-02-02T11:33:45.097Z,5.14
2023-02-02T11:34:48.347Z,5.17
2023-02-02T11:35:58.237Z,5.15
2023-02-02T11:37:14.476Z,5.13
2023-02-02T11:38:17.797Z,5.11
2023-02-02T11:39:21.995Z,5.18
2023-02-02T11:40:35.383Z,5.10
2023-02-02T11:41:39.110Z,5.08
2023-02-02T11:42:50.327Z,5.07
2023-02-02T11:43:55.474Z,5.14
2023-02-02T11:44:59.576Z,5.12
2023-02-02T11:46:06.560Z,5.17
2023-02-02T11:47:24.948Z,5.11
2023-02-02T11:48:38.151Z,5.10
2023-02-02T11:49:44.217Z,5.13
2023-02-02T11:50:50.616Z,5.09
2023-02-02T11:52:05.320Z,5.11
2023-02-02T11:53:26.911Z,5.12
2023-02-02T11:54:37.117Z,5.17
2023-02-02T11:55:43.725Z,5.12
2023-02-02T11:56:52.589Z,5.06
2023-02-02T11:58:12.070Z,5.07
2023-02-02T11:59:42.737Z,5.04
2023-02-02T12:01:01.347Z,5.02
2023-02-02T12:02:16.368Z,5.03
2023-02-02T12:03:37.185Z,5.10
2023-02-02T12:04:41.008Z,5.09
2023-02-02T12:05:46.886Z,4.98
2023-02-02T12:06:50.088Z,5.04
2023-02-02T12:07:53.226Z,4.99
2023-02-02T12:09:01.603Z,4.99
2023-02-02T12:10:15.453Z,4.99
2023-02-02T12:12:12.015Z,5.07
2023-02-02T12:13:20.573Z,5.01
2023-02-02T12:14:36.281Z,5.01
2023-02-02T12:15:41.964Z,4.96
2023-02-02T12:17:08.324Z,4.95
2023-02-02T12:18:14.326Z,5.00
2023-02-02T12:19:29.294Z,4.97
2023-02-02T12:21:05.264Z,4.98
2023-02-02T12:22:43.152Z,5.01
2023-02-02T12:24:14.815Z,4.97
2023-02-02T12:25:42.271Z,4.93
2023-02-02T12:26:54.330Z,4.94
2023-02-02T12:28:25.901Z,4.93
2023-02-02T12:29:42.121Z,4.94
2023-02-02T12:30:50.988Z,4.91
2023-02-02T12:32:28.243Z,4.94
2023-02-02T12:33:41.796Z,4.89
2023-02-02T12:34:59.352Z,4.91
2023-02-02T12:36:27.645Z,4.94
2023-02-02T12:37:52.078Z,4.91
2023-02-02T12:39:10.629Z,4.90
2023-02-02T12:40:28.599Z,4.93
2023-02-02T12:41:34.462Z,4.89
2023-02-02T12:42:52.645Z,4.89
2023-02-02T12:44:23.446Z,4.95
2023-02-02T12:45:26.471Z,4.91
2023-02-02T12:46:45.259Z,4.90
2023-02-02T12:48:04.055Z,4.93
2023-02-02T12:49:25.813Z,4.95
2023-02-02T12:50:41.068Z,4.95
2023-02-02T12:51:49.970Z,4.99
2023-02-02T12:52:58.650Z,4.96
2023-02-02T12:54:32.546Z,4.93
2023-02-02T12:55:50.493Z,5.00
2023-02-02T12:57:31.471Z,5.00
2023-02-02T12:59:01.474Z,5.02
2023-02-02T13:00:24.273Z,5.04
2023-02-02T13:02:12.128Z,5.07
2023-02-02T13:03:24.000Z,5.03
2023-02-02T13:06:27.703Z,5.00
2023-02-02T13:07:36.725Z,5.04
2023-02-02T13:08:45.298Z,5.11
2023-02-02T13:10:04.480Z,5.12
2023-02-02T13:11:30.157Z,5.14
2023-02-02T13:12:40.003Z,5.09
2023-02-02T13:13:44.117Z,5.05
2023-02-02T13:14:56.091Z,5.11
2023-02-02T13:16:06.830Z,5.16
2023-02-02T13:17:19.717Z,5.17
2023-02-02T13:18:40.009Z,5.20
2023-02-02T13:20:06.530Z,5.22
2023-02-02T13:21:17.125Z,5.21
2023-02-02T13:22:29.385Z,5.24
2023-02-02T13:23:44.580Z,5.24
2023-02-02T13:24:50.087Z,5.22
2023-02-02T13:26:00.755Z,5.20
2023-02-02T13:27:07.943Z,5.18
2023-02-02T13:28:28.347Z,5.14
2023-02-02T13:29:47.865Z,5.08
2023-02-02T13:30:53.099Z,5.03
2023-02-02T13:32:11.190Z,5.03
2023-02-02T13:33:24.356Z,5.01
2023-02-02T13:34:40.048Z,4.95
2023-02-02T13:35:51.906Z,4.94
2023-02-02T13:37:04.437Z,4.91
2023-02-02T13:38:30.600Z,4.93
2023-02-02T13:39:40.145Z,4.83
2023-02-02T13:40:44.102Z,4.87
2023-02-02T13:41:49.700Z,4.84
2023-02-02T13:43:11.976Z,4.81
2023-02-02T13:44:21.966Z,4.88
2023-02-02T13:45:43.044Z,4.92
2023-02-02T13:46:59.533Z,4.89
2023-02-02T13:48:16.583Z,4.86
2023-02-02T13:49:35.877Z,4.93
2023-02-02T13:51:04.898Z,4.86
2023-02-02T13:52:41.766Z,4.95
2023-02-02T13:54:04.402Z,4.96
2023-02-02T13:55:43.962Z,5.05
2023-02-02T13:56:55.770Z,4.99
2023-02-02T13:58:01.739Z,4.98
2023-02-02T13:59:12.940Z,4.96
2023-02-02T14:00:19.976Z,4.97
2023-02-02T14:01:25.587Z,5.01
2023-02-02T14:02:34.414Z,4.99
2023-02-02T14:03:44.600Z,4.94
2023-02-02T14:04:55.290Z,4.92
2023-02-02T14:06:17.193Z,4.86
2023-02-02T14:07:28.279Z,4.81
2023-02-02T14:08:32.353Z,4.84
2023-02-02T14:09:38.333Z,4.75
2023-02-02T14:10:53.456Z,4.77
2023-02-02T14:12:01.612Z,4.72
2023-02-02T14:13:33.242Z,4.72
2023-02-02T14:14:40.168Z,4.69
2023-02-02T14:15:44.847Z,4.72
2023-02-02T14:16:50.279Z,4.67
2023-02-02T14:17:55.840Z,4.66
2023-02-02T14:19:03.886Z,4.71
2023-02-02T14:20:41.818Z,4.72
2023-02-02T14:21:45.013Z,4.74
2023-02-02T14:22:51.684Z,4.76
2023-02-02T14:23:56.596Z,4.79
2023-02-02T14:24:59.504Z,4.77
2023-02-02T14:26:10.028Z,4.72
2023-02-02T14:27:13.301Z,4.72
2023-02-02T14:28:44.485Z,4.74
2023-02-02T14:29:47.392Z,4.74
2023-02-02T14:31:20.318Z,4.71
2023-02-02T14:32:29.055Z,4.76
2023-02-02T14:33:42.252Z,4.76
2023-02-02T14:34:45.983Z,4.70
2023-02-02T14:35:49.006Z,4.72
2023-02-02T14:37:23.525Z,4.73
2023-02-02T14:38:59.499Z,4.73
2023-02-02T14:40:06.345Z,4.82
2023-02-02T14:41:59.856Z,4.81
2023-02-02T14:43:38.643Z,4.76
2023-02-02T14:45:08.099Z,4.68
2023-02-02T14:46:13.983Z,4.66
2023-02-02T14:47:59.551Z,4.62
2023-02-02T14:49:03.492Z,4.53
2023-02-02T14:50:15.054Z,4.49
2023-02-02T14:51:26.920Z,4.41
2023-02-02T14:52:30.032Z,4.41
2023-02-02T14:53:37.760Z,4.35
2023-02-02T14:54:43.050Z,4.31
2023-02-02T14:56:00.942Z,4.27
2023-02-02T14:57:26.883Z,4.24
2023-02-02T14:58:42.516Z,4.26
2023-02-02T14:59:47.984Z,4.17
2023-02-02T15:01:06.491Z,4.13
2023-02-02T15:02:20.459Z,4.11
2023-02-02T15:03:55.496Z,4.07
2023-02-02T15:05:29.644Z,4.08
2023-02-02T15:06:35.116Z,4.02
2023-02-02T15:07:50.968Z,3.96
2023-02-02T15:09:18.761Z,3.94
2023-02-02T15:10:54.106Z,3.95
2023-02-02T15:12:02.765Z,3.95
2023-02-02T15:13:12.482Z,3.84
2023-02-02T15:14:18.454Z,3.84
2023-02-02T15:15:30.384Z,3.83
2023-02-02T15:16:36.717Z,3.87
2023-02-02T15:17:40.045Z,3.85
2023-02-02T15:18:55.922Z,3.83